createdAt,value
2019-03-23T00:01:46.266Z,57.13
2019-03-23T00:04:14.849Z,53.37
2019-03-23T00:06:43.341Z,52.83
2019-03-23T00:09:11.944Z,48.97
2019-03-23T00:11:40.505Z,52.97
2019-03-23T00:14:09.093Z,52.57
2019-03-23T00:16:37.660Z,52.93
2019-03-23T00:19:06.245Z,52.20
2019-03-23T00:21:34.808Z,50.80
2019-03-23T00:24:03.399Z,51.60
2019-03-23T00:26:31.957Z,48.47
2019-03-23T00:29:00.551Z,51.60
2019-03-23T00:31:29.112Z,55.27
2019-03-23T00:33:57.635Z,49.57
2019-03-23T00:36:26.192Z,52.67
2019-03-23T00:38:54.777Z,52.83
2019-03-23T00:41:23.337Z,53.30
2019-03-23T00:43:51.931Z,50.07
2019-03-23T00:46:20.497Z,51.23
2019-03-23T00:48:49.083Z,50.97
2019-03-23T00:51:17.795Z,48.47
2019-03-23T00:53:46.423Z,52.37
2019-03-23T00:56:16.574Z,55.93
2019-03-23T00:58:45.277Z,56.53
2019-03-23T01:01:13.921Z,50.53
2019-03-23T01:03:42.504Z,56.10
2019-03-23T01:06:11.061Z,51.73
2019-03-23T01:08:39.661Z,52.07
2019-03-23T01:11:08.217Z,48.80
2019-03-23T01:13:36.812Z,55.27
2019-03-23T01:16:05.441Z,53.00
2019-03-23T01:18:33.971Z,49.30
2019-03-23T01:21:02.633Z,45.70
2019-03-23T01:23:31.719Z,52.33
2019-03-23T01:26:00.359Z,51.23
2019-03-23T01:28:28.875Z,51.73
2019-03-23T01:30:57.465Z,46.57
2019-03-23T01:33:25.957Z,53.97
2019-03-23T01:35:54.615Z,48.53
2019-03-23T01:38:23.173Z,51.93
2019-03-23T01:40:51.693Z,49.40
2019-03-23T01:43:20.259Z,47.17
2019-03-23T01:45:48.849Z,48.90
2019-03-23T01:48:17.410Z,54.07
2019-03-23T01:50:46.001Z,52.37
2019-03-23T01:53:14.563Z,50.93
2019-03-23T01:55:43.149Z,51.27
2019-03-23T01:58:11.637Z,49.17
2019-03-23T02:00:40.268Z,51.97
2019-03-23T02:03:08.827Z,51.03
2019-03-23T02:05:37.425Z,53.27
2019-03-23T02:08:05.910Z,57.00
2019-03-23T02:10:34.503Z,43.83
2019-03-23T02:13:03.067Z,47.53
2019-03-23T02:15:31.658Z,45.63
2019-03-23T02:18:00.213Z,46.20
2019-03-23T02:20:28.731Z,43.63
2019-03-23T02:22:57.289Z,44.53
2019-03-23T02:25:25.882Z,46.30
2019-03-23T02:27:54.445Z,40.63
2019-03-23T02:30:23.055Z,47.70
2019-03-23T02:32:51.613Z,40.00
2019-03-23T02:35:20.281Z,44.80
2019-03-23T02:37:48.839Z,45.80
2019-03-23T02:40:17.431Z,45.27
2019-03-23T02:42:45.994Z,43.47
2019-03-23T02:45:14.867Z,40.50
2019-03-23T02:47:43.409Z,38.33
2019-03-23T02:50:12.104Z,46.87
2019-03-23T02:52:40.693Z,39.77
2019-03-23T02:55:10.196Z,42.50
2019-03-23T02:57:38.855Z,49.60
2019-03-23T03:00:12.982Z,43.77
2019-03-23T03:02:41.634Z,42.20
2019-03-23T03:05:10.631Z,47.50
2019-03-23T03:07:42.572Z,45.33
2019-03-23T03:10:11.826Z,46.20
2019-03-23T03:12:40.418Z,49.40
2019-03-23T03:15:10.306Z,47.60
2019-03-23T03:17:38.886Z,47.17
2019-03-23T03:20:09.896Z,49.47
2019-03-23T03:22:38.482Z,42.20
2019-03-23T03:25:07.687Z,49.73
2019-03-23T03:27:36.266Z,50.47
2019-03-23T03:30:06.966Z,50.53
2019-03-23T03:32:35.615Z,46.30
2019-03-23T03:35:05.550Z,52.30
2019-03-23T03:37:34.149Z,54.43
2019-03-23T03:40:02.696Z,50.17
2019-03-23T03:42:31.279Z,49.60
2019-03-23T03:44:59.834Z,48.23
2019-03-23T03:47:28.420Z,47.53
2019-03-23T03:49:56.980Z,45.60
2019-03-23T03:52:25.567Z,44.97
2019-03-23T03:54:54.118Z,51.70
2019-03-23T03:57:22.711Z,45.87
2019-03-23T03:59:51.261Z,51.03
2019-03-23T04:02:19.860Z,51.87
2019-03-23T04:04:48.421Z,57.23
2019-03-23T04:07:16.977Z,48.93
2019-03-23T04:09:45.563Z,53.63
2019-03-23T04:12:14.115Z,49.60
2019-03-23T04:14:42.718Z,49.60
2019-03-23T04:17:11.258Z,56.90
2019-03-23T04:19:39.847Z,51.43
2019-03-23T04:22:08.397Z,49.03
2019-03-23T04:24:36.990Z,54.37
2019-03-23T04:27:05.542Z,53.20
2019-03-23T04:29:34.600Z,54.50
2019-03-23T04:32:03.153Z,52.30
2019-03-23T04:34:31.683Z,55.27
2019-03-23T04:37:00.230Z,49.50
2019-03-23T04:39:28.813Z,55.10
2019-03-23T04:41:57.371Z,53.00
2019-03-23T04:44:25.957Z,58.83
2019-03-23T04:46:54.583Z,49.30
2019-03-23T04:49:23.182Z,53.10
2019-03-23T04:51:51.732Z,53.00
2019-03-23T04:54:20.285Z,54.70
2019-03-23T04:56:48.865Z,53.80
2019-03-23T04:59:17.347Z,51.73
2019-03-23T05:01:45.935Z,54.47
2019-03-23T05:04:14.485Z,54.47
2019-03-23T05:06:43.073Z,48.57
2019-03-23T05:09:11.630Z,56.53
2019-03-23T05:11:40.215Z,57.90
2019-03-23T05:14:08.711Z,52.87
2019-03-23T05:16:37.293Z,50.67
2019-03-23T05:19:05.777Z,53.43
2019-03-23T05:21:34.377Z,52.00
2019-03-23T05:24:02.921Z,47.77
2019-03-23T05:26:31.505Z,51.83
2019-03-23T05:29:00.065Z,54.63
2019-03-23T05:31:28.656Z,51.97
2019-03-23T05:33:57.217Z,49.53
2019-03-23T05:36:25.733Z,53.13
2019-03-23T05:38:54.287Z,51.97
2019-03-23T05:41:22.865Z,45.53
2019-03-23T05:43:51.345Z,52.97
2019-03-23T05:46:19.936Z,47.47
2019-03-23T05:48:48.487Z,52.07
2019-03-23T05:51:17.052Z,54.87
2019-03-23T05:53:45.641Z,49.37
2019-03-23T05:56:14.203Z,55.33
2019-03-23T05:58:42.794Z,51.57
2019-03-23T06:01:11.418Z,49.00
2019-03-23T06:03:40.009Z,46.20
2019-03-23T06:06:08.567Z,55.57
2019-03-23T06:08:37.163Z,51.73
2019-03-23T06:11:05.787Z,48.70
2019-03-23T06:13:34.378Z,54.73
2019-03-23T06:16:02.929Z,52.70
2019-03-23T06:18:31.451Z,48.00
2019-03-23T06:20:59.997Z,50.70
2019-03-23T06:23:28.588Z,50.90
2019-03-23T06:25:57.163Z,52.20
2019-03-23T06:28:25.705Z,43.97
2019-03-23T06:30:54.221Z,50.53
2019-03-23T06:33:22.785Z,50.50
2019-03-23T06:35:51.374Z,47.73
2019-03-23T06:38:19.929Z,47.53
2019-03-23T06:40:48.527Z,53.63
2019-03-23T06:43:17.081Z,50.20
2019-03-23T06:45:45.680Z,44.03
2019-03-23T06:48:14.240Z,50.73
2019-03-23T06:50:42.825Z,52.07
2019-03-23T06:53:11.381Z,50.07
2019-03-23T06:55:39.909Z,50.73
2019-03-23T06:58:08.470Z,53.87
2019-03-23T07:00:37.062Z,47.10
2019-03-23T07:03:05.629Z,47.93
2019-03-23T07:05:34.234Z,51.40
2019-03-23T07:08:02.857Z,50.90
2019-03-23T07:10:31.379Z,51.87
2019-03-23T07:12:59.951Z,49.97
2019-03-23T07:15:28.516Z,48.77
2019-03-23T07:17:57.110Z,49.47
2019-03-23T07:20:25.677Z,49.47
2019-03-23T07:22:54.986Z,49.97
2019-03-23T07:25:23.622Z,50.60
2019-03-23T07:27:52.143Z,50.93
2019-03-23T07:30:20.712Z,47.60
2019-03-23T07:32:49.294Z,49.53
2019-03-23T07:35:17.938Z,46.57
2019-03-23T07:37:46.517Z,45.97
2019-03-23T07:40:15.157Z,50.87
2019-03-23T07:42:43.748Z,51.00
2019-03-23T07:45:14.419Z,46.30
2019-03-23T07:47:43.134Z,51.87
2019-03-23T07:50:12.933Z,45.70
2019-03-23T07:52:41.514Z,53.23
2019-03-23T07:55:13.153Z,45.50
2019-03-23T07:57:41.809Z,47.30
2019-03-23T08:00:13.444Z,47.30
2019-03-23T08:02:42.039Z,47.20
2019-03-23T08:05:10.773Z,49.57
2019-03-23T08:07:39.362Z,51.67
2019-03-23T08:10:08.794Z,49.57
2019-03-23T08:12:37.388Z,44.97
2019-03-23T08:15:08.558Z,44.77
2019-03-23T08:17:37.155Z,48.07
2019-03-23T08:20:07.450Z,47.30
2019-03-23T08:22:36.034Z,48.53
2019-03-23T08:25:06.461Z,37.30
2019-03-23T08:27:35.065Z,45.60
2019-03-23T08:30:04.973Z,43.27
2019-03-23T08:32:33.573Z,40.67
2019-03-23T08:35:02.138Z,36.77
2019-03-23T08:37:30.746Z,39.93
2019-03-23T08:39:59.305Z,37.07
2019-03-23T08:42:27.893Z,35.57
2019-03-23T08:44:56.461Z,35.87
2019-03-23T08:47:25.046Z,35.63
2019-03-23T08:49:53.597Z,32.87
2019-03-23T08:52:22.094Z,29.07
2019-03-23T08:54:50.750Z,33.03
2019-03-23T08:57:19.339Z,30.83
2019-03-23T08:59:47.926Z,33.20
2019-03-23T09:02:16.410Z,26.53
2019-03-23T09:04:44.993Z,25.73
2019-03-23T09:07:13.481Z,26.47
2019-03-23T09:09:42.072Z,23.93
2019-03-23T09:12:10.705Z,22.70
2019-03-23T09:14:39.298Z,20.03
2019-03-23T09:17:07.789Z,20.13
2019-03-23T09:19:36.373Z,19.13
2019-03-23T09:22:04.935Z,17.83
2019-03-23T09:24:33.528Z,19.07
2019-03-23T09:27:02.113Z,16.20
2019-03-23T09:29:30.709Z,19.23
2019-03-23T09:31:59.269Z,15.67
2019-03-23T09:34:27.845Z,19.03
2019-03-23T09:36:56.406Z,18.77
2019-03-23T09:39:24.986Z,17.43
2019-03-23T09:41:53.547Z,18.37
2019-03-23T09:44:22.134Z,16.43
2019-03-23T09:46:50.685Z,17.00
2019-03-23T09:49:19.205Z,13.87
2019-03-23T09:51:47.761Z,14.73
2019-03-23T09:54:16.281Z,14.10
2019-03-23T09:56:44.842Z,18.33
2019-03-23T09:59:13.366Z,16.30
2019-03-23T10:01:41.918Z,14.33
2019-03-23T10:04:10.418Z,9.37
2019-03-23T10:06:38.897Z,11.10
2019-03-23T10:09:07.723Z,10.47
2019-03-23T10:11:36.303Z,11.43
2019-03-23T10:14:04.917Z,7.70
2019-03-23T10:16:33.518Z,7.80
2019-03-23T10:19:02.088Z,7.20
2019-03-23T10:21:30.679Z,7.23
2019-03-23T10:23:59.221Z,7.40
2019-03-23T10:26:27.801Z,10.40
2019-03-23T10:28:56.284Z,7.93
2019-03-23T10:31:24.866Z,6.37
2019-03-23T10:33:53.422Z,6.77
2019-03-23T10:36:22.015Z,8.33
2019-03-23T10:38:50.571Z,7.13
2019-03-23T10:41:19.228Z,8.43
2019-03-23T10:43:47.794Z,7.83
2019-03-23T10:46:16.386Z,7.08
2019-03-23T10:48:45.001Z,8.03
2019-03-23T10:51:13.603Z,7.05
2019-03-23T10:53:42.158Z,6.80
2019-03-23T10:56:10.666Z,6.72
2019-03-23T10:58:39.222Z,6.50
2019-03-23T11:01:07.885Z,6.60
2019-03-23T11:03:36.444Z,6.58
2019-03-23T11:06:05.113Z,7.15
2019-03-23T11:08:33.654Z,7.62
2019-03-23T11:11:02.251Z,7.78
2019-03-23T11:13:30.798Z,7.58
2019-03-23T11:15:59.382Z,7.58
2019-03-23T11:18:27.934Z,7.30
2019-03-23T11:20:56.518Z,8.45
2019-03-23T11:23:25.075Z,7.50
2019-03-23T11:25:53.654Z,8.40
2019-03-23T11:28:22.214Z,8.55
2019-03-23T11:30:50.870Z,8.55
2019-03-23T11:33:19.429Z,9.28
2019-03-23T11:35:57.513Z,9.38
2019-03-23T11:38:18.250Z,8.25
2019-03-23T11:40:53.831Z,8.58
2019-03-23T11:43:17.038Z,9.23
2019-03-23T11:45:45.594Z,8.50
2019-03-23T11:48:14.190Z,8.40
2019-03-23T11:50:42.817Z,8.15
2019-03-23T11:53:11.393Z,8.50
2019-03-23T11:55:39.949Z,8.78
2019-03-23T11:58:08.536Z,8.60
2019-03-23T12:00:37.090Z,8.98
2019-03-23T12:03:05.678Z,9.48
2019-03-23T12:05:34.230Z,9.70
2019-03-23T12:08:02.818Z,8.98
2019-03-23T12:10:31.315Z,10.70
2019-03-23T12:12:59.901Z,10.48
2019-03-23T12:15:29.855Z,9.83
2019-03-23T12:17:58.607Z,10.78
2019-03-23T12:20:27.169Z,10.70
2019-03-23T12:22:55.763Z,11.80
2019-03-23T12:25:24.330Z,10.82
2019-03-23T12:27:52.846Z,10.78
2019-03-23T12:30:21.470Z,11.30
2019-03-23T12:32:50.056Z,10.75
2019-03-23T12:35:18.623Z,11.30
2019-03-23T12:37:47.205Z,10.93
2019-03-23T12:40:15.898Z,11.00
2019-03-23T12:42:44.564Z,11.80
2019-03-23T12:45:13.872Z,10.93
2019-03-23T12:47:42.528Z,10.43
2019-03-23T12:50:11.724Z,9.63
2019-03-23T12:52:40.304Z,9.50
2019-03-23T12:55:09.827Z,9.25
2019-03-23T12:57:38.415Z,9.45
2019-03-23T13:00:12.965Z,9.88
2019-03-23T13:02:41.551Z,10.60
2019-03-23T13:05:10.347Z,10.30
2019-03-23T13:07:38.977Z,9.58
2019-03-23T13:10:10.893Z,8.95
2019-03-23T13:12:39.590Z,8.93
2019-03-23T13:15:12.367Z,9.53
2019-03-23T13:17:40.960Z,8.80
2019-03-23T13:20:11.254Z,8.38
2019-03-23T13:22:39.928Z,8.15
2019-03-23T13:25:09.533Z,8.60
2019-03-23T13:27:38.081Z,9.60
2019-03-23T13:30:09.904Z,9.45
2019-03-23T13:32:38.463Z,10.08
2019-03-23T13:35:07.286Z,10.38
2019-03-23T13:37:35.773Z,10.93
2019-03-23T13:40:06.634Z,11.22
2019-03-23T13:42:35.122Z,10.88
2019-03-23T13:45:04.841Z,10.63
2019-03-23T13:47:33.329Z,10.48
2019-03-23T13:50:01.885Z,10.23
2019-03-23T13:52:30.445Z,10.25
2019-03-23T13:54:59.036Z,10.93
2019-03-23T13:57:27.590Z,10.75
2019-03-23T13:59:56.178Z,10.50
2019-03-23T14:02:24.984Z,10.55
2019-03-23T14:04:53.583Z,11.73
2019-03-23T14:07:22.137Z,11.10
2019-03-23T14:09:50.735Z,12.73
2019-03-23T14:12:19.290Z,13.38
2019-03-23T14:14:47.812Z,11.08
2019-03-23T14:17:16.375Z,11.70
2019-03-23T14:19:44.964Z,12.30
2019-03-23T14:22:13.594Z,12.58
2019-03-23T14:24:42.118Z,12.58
2019-03-23T14:27:10.678Z,11.83
2019-03-23T14:29:39.200Z,12.53
2019-03-23T14:32:07.767Z,12.80
2019-03-23T14:34:36.453Z,12.40
2019-03-23T14:37:05.007Z,11.83
2019-03-23T14:39:33.525Z,13.10
2019-03-23T14:42:05.109Z,14.03
2019-03-23T14:44:32.333Z,15.17
2019-03-23T14:47:00.901Z,15.77
2019-03-23T14:49:29.498Z,13.77
2019-03-23T14:51:58.117Z,13.70
2019-03-23T14:54:26.729Z,13.50
2019-03-23T14:56:55.294Z,13.90
2019-03-23T14:59:23.854Z,14.67
2019-03-23T15:01:52.442Z,13.93
2019-03-23T15:04:21.017Z,14.50
2019-03-23T15:06:49.731Z,13.53
2019-03-23T15:09:18.304Z,13.80
2019-03-23T15:11:46.886Z,18.90
2019-03-23T15:14:37.115Z,14.20
2019-03-23T15:16:58.021Z,15.53
2019-03-23T15:19:26.594Z,14.03
2019-03-23T15:21:55.178Z,13.10
2019-03-23T15:24:23.760Z,15.73
2019-03-23T15:26:52.330Z,14.03
2019-03-23T15:29:20.914Z,16.07
2019-03-23T15:31:51.377Z,15.97
2019-03-23T15:34:20.077Z,16.50
2019-03-23T15:36:48.848Z,15.73
2019-03-23T15:39:17.464Z,18.23
2019-03-23T15:41:46.061Z,14.47
2019-03-23T15:44:14.794Z,15.20
2019-03-23T15:46:43.345Z,15.67
2019-03-23T15:49:11.874Z,14.80
2019-03-23T15:51:40.462Z,17.70
2019-03-23T15:54:09.028Z,16.83
2019-03-23T15:56:37.615Z,18.90
2019-03-23T15:59:06.167Z,19.63
2019-03-23T16:01:34.758Z,23.87
2019-03-23T16:04:03.395Z,19.00
2019-03-23T16:06:31.986Z,22.40
2019-03-23T16:09:00.538Z,20.93
2019-03-23T16:11:29.061Z,23.77
2019-03-23T16:13:57.552Z,18.10
2019-03-23T16:16:26.142Z,17.07
2019-03-23T16:18:54.698Z,23.17
2019-03-23T16:21:23.216Z,21.87
2019-03-23T16:23:51.774Z,21.40
2019-03-23T16:26:20.370Z,22.40
2019-03-23T16:28:48.934Z,23.07
2019-03-23T16:31:17.486Z,26.90
2019-03-23T16:33:46.153Z,30.53
2019-03-23T16:36:14.703Z,25.47
2019-03-23T16:38:43.294Z,27.70
2019-03-23T16:41:11.774Z,28.70
2019-03-23T16:43:40.298Z,29.27
2019-03-23T16:46:08.846Z,32.20
2019-03-23T16:48:37.362Z,33.17
2019-03-23T16:51:05.926Z,32.10
2019-03-23T16:53:34.522Z,36.20
2019-03-23T16:56:03.075Z,31.83
2019-03-23T16:58:31.662Z,41.30
2019-03-23T17:01:00.148Z,40.30
2019-03-23T17:03:28.739Z,45.70
2019-03-23T17:05:57.303Z,50.23
2019-03-23T17:08:25.883Z,56.57
2019-03-23T17:10:54.442Z,61.40
2019-03-23T17:13:23.014Z,70.23
2019-03-23T17:15:51.500Z,73.83
2019-03-23T17:18:20.090Z,71.03
2019-03-23T17:20:48.646Z,72.17
2019-03-23T17:23:17.244Z,79.00
2019-03-23T17:25:45.803Z,80.00
2019-03-23T17:28:14.314Z,73.87
2019-03-23T17:30:42.980Z,79.10
2019-03-23T17:33:11.588Z,79.53
2019-03-23T17:35:40.134Z,84.90
2019-03-23T17:38:08.654Z,85.33
2019-03-23T17:40:37.207Z,81.03
2019-03-23T17:43:06.399Z,83.97
2019-03-23T17:45:34.974Z,83.93
2019-03-23T17:48:03.562Z,83.90
2019-03-23T17:50:32.050Z,79.70
2019-03-23T17:53:00.614Z,77.43
2019-03-23T17:55:29.225Z,73.40
2019-03-23T17:57:57.774Z,78.93
2019-03-23T18:00:26.762Z,84.50
2019-03-23T18:02:55.320Z,79.00
2019-03-23T18:05:24.054Z,80.33
2019-03-23T18:07:52.610Z,85.77
2019-03-23T18:10:21.203Z,76.93
2019-03-23T18:12:49.844Z,77.00
2019-03-23T18:15:18.510Z,79.30
2019-03-23T18:17:47.074Z,77.70
2019-03-23T18:20:15.818Z,71.07
2019-03-23T18:22:44.381Z,79.37
2019-03-23T18:25:13.078Z,72.10
2019-03-23T18:27:41.667Z,71.50
2019-03-23T18:30:21.982Z,69.20
2019-03-23T18:32:50.567Z,70.73
2019-03-23T18:35:19.122Z,65.80
2019-03-23T18:37:47.638Z,72.17
2019-03-23T18:40:16.204Z,68.83
2019-03-23T18:42:44.786Z,68.37
2019-03-23T18:45:13.377Z,80.53
2019-03-23T18:47:41.932Z,80.37
2019-03-23T18:50:10.666Z,82.23
2019-03-23T18:52:39.342Z,70.63
2019-03-23T18:55:08.198Z,65.47
2019-03-23T18:57:36.698Z,53.70
2019-03-23T19:00:09.563Z,64.23
2019-03-23T19:02:38.184Z,58.90
2019-03-23T19:05:06.962Z,61.43
2019-03-23T19:07:35.578Z,57.70
2019-03-23T19:10:05.836Z,53.17
2019-03-23T19:12:34.423Z,52.40
2019-03-23T19:15:03.082Z,48.97
2019-03-23T19:17:31.570Z,53.43
2019-03-23T19:20:00.194Z,49.20
2019-03-23T19:22:29.024Z,62.13
2019-03-23T19:24:57.615Z,60.53
2019-03-23T19:27:26.174Z,64.30
2019-03-23T19:29:54.738Z,62.23
2019-03-23T19:32:23.406Z,68.57
2019-03-23T19:34:51.971Z,63.10
2019-03-23T19:37:20.558Z,60.70
2019-03-23T19:39:49.056Z,60.13
2019-03-23T19:42:17.714Z,59.50
2019-03-23T19:44:46.230Z,57.37
2019-03-23T19:47:14.827Z,58.93
2019-03-23T19:49:43.395Z,69.80
2019-03-23T19:52:11.990Z,56.47
2019-03-23T19:54:40.550Z,61.03
2019-03-23T19:57:09.220Z,59.43
2019-03-23T19:59:37.698Z,57.20
2019-03-23T20:02:06.430Z,56.77
2019-03-23T20:04:34.985Z,65.60
2019-03-23T20:07:03.498Z,62.47
2019-03-23T20:09:32.062Z,62.23
2019-03-23T20:12:00.662Z,57.60
2019-03-23T20:14:29.218Z,56.50
2019-03-23T20:16:57.814Z,64.30
2019-03-23T20:19:26.374Z,64.23
2019-03-23T20:21:54.979Z,64.27
2019-03-23T20:24:23.609Z,67.97
2019-03-23T20:26:52.211Z,64.13
2019-03-23T20:29:20.772Z,62.87
2019-03-23T20:31:49.359Z,67.03
2019-03-23T20:34:17.918Z,66.37
2019-03-23T20:36:46.515Z,64.80
2019-03-23T20:39:15.079Z,68.77
2019-03-23T20:41:43.694Z,65.53
2019-03-23T20:44:12.294Z,66.67
2019-03-23T20:46:40.915Z,71.13
2019-03-23T20:49:10.152Z,71.87
2019-03-23T20:51:38.984Z,71.83
2019-03-23T20:54:07.506Z,72.20
2019-03-23T20:56:36.136Z,72.90
2019-03-23T20:59:04.802Z,71.83
2019-03-23T21:01:33.359Z,72.13
2019-03-23T21:04:01.961Z,74.47
2019-03-23T21:06:30.528Z,76.33
2019-03-23T21:08:59.122Z,68.93
2019-03-23T21:11:27.686Z,71.33
2019-03-23T21:13:56.278Z,77.13
2019-03-23T21:16:24.838Z,71.80
2019-03-23T21:18:53.398Z,74.53
2019-03-23T21:21:21.990Z,74.93
2019-03-23T21:23:52.128Z,73.43
2019-03-23T21:26:20.887Z,76.77
2019-03-23T21:28:49.442Z,75.43
2019-03-23T21:31:18.294Z,77.57
2019-03-23T21:33:46.859Z,69.80
2019-03-23T21:36:15.442Z,75.13
2019-03-23T21:38:43.963Z,76.67
2019-03-23T21:41:12.526Z,77.17
2019-03-23T21:43:41.082Z,70.47
2019-03-23T21:46:09.602Z,77.33
2019-03-23T21:48:38.167Z,72.27
2019-03-23T21:51:06.717Z,87.83
2019-03-23T21:53:35.238Z,82.33
2019-03-23T21:56:03.791Z,81.23
2019-03-23T21:58:32.301Z,74.57
2019-03-23T22:01:00.792Z,73.17
2019-03-23T22:03:29.461Z,72.07
2019-03-23T22:05:58.023Z,70.00
2019-03-23T22:08:26.674Z,67.00
2019-03-23T22:10:55.235Z,67.40
2019-03-23T22:13:23.835Z,69.10
2019-03-23T22:15:52.402Z,65.23
2019-03-23T22:18:20.965Z,66.17
2019-03-23T22:20:49.546Z,64.73
2019-03-23T22:23:18.044Z,70.03
2019-03-23T22:25:46.638Z,72.33
2019-03-23T22:28:15.118Z,70.33
2019-03-23T22:30:43.630Z,72.40
2019-03-23T22:33:12.112Z,74.00
2019-03-23T22:35:40.706Z,73.37
2019-03-23T22:38:09.275Z,74.60
2019-03-23T22:40:37.859Z,71.00
2019-03-23T22:43:06.346Z,72.30
2019-03-23T22:45:35.898Z,70.67
2019-03-23T22:48:04.734Z,78.83
2019-03-23T22:50:33.330Z,75.10
2019-03-23T22:53:01.891Z,74.50
2019-03-23T22:55:30.538Z,76.27
2019-03-23T22:57:59.063Z,71.63
2019-03-23T23:00:33.362Z,77.20
2019-03-23T23:03:02.658Z,71.60
2019-03-23T23:05:31.254Z,74.93
2019-03-23T23:07:59.806Z,74.20
2019-03-23T23:10:28.314Z,72.70
2019-03-23T23:12:56.814Z,85.87
2019-03-23T23:15:25.404Z,73.17
2019-03-23T23:17:53.966Z,77.93
2019-03-23T23:20:22.550Z,75.33
2019-03-23T23:22:51.039Z,74.70
2019-03-23T23:25:19.624Z,78.03
2019-03-23T23:27:48.191Z,80.80
2019-03-23T23:30:17.048Z,75.53
2019-03-23T23:32:45.580Z,73.37
2019-03-23T23:35:14.335Z,71.97
2019-03-23T23:37:42.891Z,74.93
2019-03-23T23:40:11.630Z,73.77
2019-03-23T23:42:40.187Z,70.87
2019-03-23T23:45:15.209Z,73.83
2019-03-23T23:47:39.954Z,69.67
2019-03-23T23:50:09.054Z,69.03
2019-03-23T23:52:37.574Z,65.63
2019-03-23T23:55:06.882Z,68.87
2019-03-23T23:57:35.466Z,74.37
